Time;durP1;ratioP1;P1;durP2;ratioP2;P2;SDS_P1;SDS_P2;PMS_P1;PMS_P2;Temp;Humidity;BMP_temperature;BMP_pressure;BME280_temperature;BME280_humidity;BME280_pressure;Samples;Min_cycle;Max_cycle;Signal;HPM_P1;HPM_P2
2021/12/24 00:00:30;;;;;;;5.37;4.97;;;;;;;4.71;100.00;98960.31;5071999;28;20741;-79
2021/12/24 00:02:58;;;;;;;5.10;4.60;;;;;;;4.61;100.00;98963.94;5071801;28;20230;-79
2021/12/24 00:05:25;;;;;;;6.00;5.50;;;;;;;4.69;100.00;98957.75;5056797;28;20240;-80
2021/12/24 00:07:55;;;;;;;6.00;5.50;;;;;;;4.69;100.00;98952.59;5053377;28;20271;-80
2021/12/24 00:10:21;;;;;;;4.90;4.50;;;;;;;4.77;100.00;98948.09;5046763;28;20229;-80
2021/12/24 00:12:56;;;;;;;5.67;5.00;;;;;;;4.75;100.00;98952.47;5039824;28;20311;-81
2021/12/24 00:15:48;;;;;;;5.23;4.83;;;;;;;4.72;100.00;98947.38;5040235;28;20555;-80
2021/12/24 00:18:24;;;;;;;4.50;4.13;;;;;;;4.78;100.00;98938.66;5040982;28;20198;-80
2021/12/24 00:37:22;;;;;;;3.50;3.30;;;;;;;4.77;100.00;98930.00;5045066;28;20276;-79
2021/12/24 00:39:55;;;;;;;4.20;3.90;;;;;;;4.84;100.00;98923.00;5043605;28;20228;-80
2021/12/24 00:42:21;;;;;;;4.30;4.00;;;;;;;4.88;100.00;98931.56;5043785;28;20197;-80
2021/12/24 00:44:48;;;;;;;3.70;3.47;;;;;;;4.84;100.00;98911.81;5047785;28;20223;-79
2021/12/24 00:47:14;;;;;;;4.53;4.23;;;;;;;4.79;100.00;98914.47;5044256;28;20208;-79
2021/12/24 00:49:46;;;;;;;4.80;4.50;;;;;;;4.85;100.00;98908.34;5044287;28;20231;-79
2021/12/24 00:52:31;;;;;;;4.87;4.57;;;;;;;4.85;100.00;98908.34;5046668;28;20231;-79
2021/12/24 00:55:03;;;;;;;4.83;4.53;;;;;;;4.91;100.00;98906.47;5047944;28;20609;-79
2021/12/24 00:57:30;;;;;;;4.10;3.80;;;;;;;4.95;100.00;98907.25;5044321;28;20199;-80
2021/12/24 00:59:56;;;;;;;4.60;4.30;;;;;;;5.00;100.00;98908.03;5044958;28;20612;-81
2021/12/24 01:02:23;;;;;;;4.47;4.17;;;;;;;5.01;100.00;98907.13;5057532;22;20201;-80
2021/12/24 01:04:51;;;;;;;4.73;4.43;;;;;;;5.06;100.00;98899.28;5106538;28;20284;-79
2021/12/24 01:07:17;;;;;;;4.20;3.90;;;;;;;5.13;100.00;98896.56;5105786;28;20208;-80
2021/12/24 01:09:44;;;;;;;3.80;3.50;;;;;;;5.14;100.00;98903.41;5107469;28;20206;-78
2021/12/24 01:12:10;;;;;;;3.70;3.50;;;;;;;5.12;100.00;98909.50;5105575;28;20199;-80
2021/12/24 01:14:37;;;;;;;3.40;3.10;;;;;;;4.95;100.00;98896.91;5107721;28;20220;-80
2021/12/24 01:17:12;;;;;;;3.57;3.37;;;;;;;4.96;100.00;98904.66;5107186;28;20199;-80
2021/12/24 01:19:41;;;;;;;3.40;3.20;;;;;;;4.97;100.00;98885.69;5106722;28;20202;-80
2021/12/24 01:22:52;;;;;;;3.10;2.90;;;;;;;5.04;100.00;98901.06;5106424;28;20196;-79
2021/12/24 01:25:21;;;;;;;3.27;3.07;;;;;;;5.06;100.00;98897.56;5104015;28;20190;-81
2021/12/24 01:28:03;;;;;;;2.57;2.43;;;;;;;5.06;100.00;98905.31;5107204;28;20221;-80
2021/12/24 01:38:57;;;;;;;2.77;2.57;;;;;;;5.12;100.00;98897.41;5106333;28;20680;-80
2021/12/24 01:44:04;;;;;;;2.70;2.53;;;;;;;5.15;100.00;98888.72;5106112;28;20212;-81
2021/12/24 01:46:31;;;;;;;2.93;2.73;;;;;;;5.15;100.00;98887.03;5101647;28;20208;-79
2021/12/24 01:48:57;;;;;;;3.13;2.93;;;;;;;5.15;100.00;98883.56;5086661;28;20198;-80
2021/12/24 01:51:23;;;;;;;2.57;2.47;;;;;;;5.17;100.00;98892.13;5092251;28;20248;-80
2021/12/24 01:53:54;;;;;;;2.40;2.30;;;;;;;5.18;100.00;98873.16;5091413;28;20224;-79
2021/12/24 01:56:20;;;;;;;2.40;2.20;;;;;;;5.22;100.00;98874.78;5086811;28;20663;-80
2021/12/24 01:58:47;;;;;;;1.90;1.80;;;;;;;5.27;100.00;98875.56;5114103;28;20738;-81
2021/12/24 02:01:13;;;;;;;2.13;2.03;;;;;;;5.26;100.00;98871.25;5118157;27;20741;-80
2021/12/24 02:03:39;;;;;;;2.00;1.90;;;;;;;5.28;100.00;98871.22;5110607;28;20233;-80
2021/12/24 02:06:06;;;;;;;3.20;1.93;;;;;;;5.28;100.00;98861.72;5097433;28;20223;-81
2021/12/24 02:08:32;;;;;;;2.30;2.03;;;;;;;5.28;100.00;98856.53;5098140;28;20253;-80
2021/12/24 02:11:00;;;;;;;2.10;2.00;;;;;;;5.27;100.00;98846.22;5097772;28;20237;-80
2021/12/24 02:13:26;;;;;;;2.63;2.23;;;;;;;5.29;100.00;98847.03;5097312;28;20240;-80
2021/12/24 02:16:07;;;;;;;1.67;1.57;;;;;;;5.35;100.00;98844.31;5097339;28;20201;-80
2021/12/24 02:29:29;;;;;;;1.23;1.13;;;;;;;5.41;100.00;98840.72;5097746;28;20634;-80
2021/12/24 02:31:55;;;;;;;1.13;1.13;;;;;;;5.45;100.00;98837.16;5097518;28;20205;-81
2021/12/24 02:34:22;;;;;;;0.97;0.90;;;;;;;5.42;100.00;98840.69;5097650;28;20228;-81
2021/12/24 02:36:49;;;;;;;1.20;1.07;;;;;;;5.48;100.00;98842.28;5097687;28;20259;-81
2021/12/24 02:39:16;;;;;;;0.90;0.90;;;;;;;5.40;100.00;98847.66;5098120;28;20362;-81
2021/12/24 02:41:42;;;;;;;1.13;1.03;;;;;;;5.44;100.00;98844.09;5097579;28;20205;-81
2021/12/24 02:44:09;;;;;;;1.87;1.20;;;;;;;5.46;100.00;98834.56;5097865;28;20220;-81
2021/12/24 02:46:41;;;;;;;1.20;1.10;;;;;;;5.46;100.00;98837.16;5098178;28;20204;-81
2021/12/24 02:49:13;;;;;;;1.80;1.60;;;;;;;5.53;100.00;98835.25;5096806;28;20262;-80
2021/12/24 02:54:25;;;;;;;1.20;1.10;;;;;;;5.58;100.00;98826.47;5096794;28;20231;-80
2021/12/24 02:56:54;;;;;;;1.00;1.00;;;;;;;5.56;100.00;98812.72;5096532;28;20213;-81
2021/12/24 02:59:25;;;;;;;1.20;1.10;;;;;;;5.60;100.00;98812.66;5096251;28;20239;-81
2021/12/24 03:01:54;;;;;;;1.50;1.40;;;;;;;5.61;100.00;98806.59;5096192;28;20193;-80
2021/12/24 03:04:21;;;;;;;1.00;1.00;;;;;;;5.62;100.00;98808.31;5092818;28;20250;-81
2021/12/24 03:06:50;;;;;;;1.57;1.40;;;;;;;5.63;100.00;98802.22;5096145;28;20206;-81
2021/12/24 03:09:18;;;;;;;1.40;1.30;;;;;;;5.59;100.00;98793.72;5095899;28;20202;-80
2021/12/24 03:11:49;;;;;;;1.70;1.60;;;;;;;5.66;100.00;98790.06;5096582;28;20202;-81
2021/12/24 03:14:19;;;;;;;2.10;1.90;;;;;;;5.67;100.00;98790.91;5095943;28;20236;-81
2021/12/24 03:16:50;;;;;;;2.37;2.27;;;;;;;5.66;100.00;98787.47;5096299;28;20262;-80
2021/12/24 03:19:16;;;;;;;2.80;2.60;;;;;;;5.70;100.00;98793.44;5096457;28;20211;-80
2021/12/24 03:21:51;;;;;;;2.73;2.53;;;;;;;5.73;100.00;98785.59;5096106;28;20201;-80
2021/12/24 03:24:36;;;;;;;4.30;4.00;;;;;;;5.71;100.00;98788.22;5096212;28;20227;-80
2021/12/24 03:27:05;;;;;;;3.17;2.97;;;;;;;5.75;100.00;98773.47;5096175;28;20198;-80
2021/12/24 03:29:32;;;;;;;3.67;3.47;;;;;;;5.73;100.00;98783.00;5096003;28;20338;-80
2021/12/24 03:31:59;;;;;;;3.30;3.10;;;;;;;5.73;100.00;98781.25;5095941;28;20210;-80
2021/12/24 03:34:25;;;;;;;3.57;3.30;;;;;;;5.78;100.00;98776.78;5095937;28;20249;-80
2021/12/24 03:36:52;;;;;;;2.60;2.50;;;;;;;5.76;100.00;98781.16;5095750;28;20196;-80
2021/12/24 03:39:20;;;;;;;3.43;3.23;;;;;;;5.81;100.00;98773.28;5095437;28;20224;-80
2021/12/24 03:41:47;;;;;;;4.43;4.13;;;;;;;5.83;100.00;98768.06;5095384;28;20266;-80
2021/12/24 03:44:19;;;;;;;4.90;4.50;;;;;;;5.83;100.00;98763.75;5095825;28;20246;-80
2021/12/24 03:46:54;;;;;;;5.50;5.00;;;;;;;5.85;100.00;98768.88;5095633;28;20607;-80
2021/12/24 03:49:32;;;;;;;4.10;3.80;;;;;;;5.87;100.00;98772.28;5095746;28;20201;-81
2021/12/24 03:52:04;;;;;;;4.57;4.17;;;;;;;5.88;100.00;98766.19;5095189;28;20211;-81
2021/12/24 03:57:15;;;;;;;2.67;2.57;;;;;;;5.88;100.00;98769.63;5099145;28;20265;-81
2021/12/24 03:59:43;;;;;;;4.30;4.00;;;;;;;5.89;100.00;98768.75;5099533;28;20236;-81
2021/12/24 04:02:09;;;;;;;5.43;5.03;;;;;;;5.93;100.00;98762.59;5099569;28;20208;-81
2021/12/24 04:04:36;;;;;;;5.43;5.03;;;;;;;5.94;100.00;98760.84;5096561;28;20228;-80
2021/12/24 04:07:03;;;;;;;6.03;5.63;;;;;;;5.98;100.00;98759.91;5099919;28;20719;-80
2021/12/24 04:09:30;;;;;;;6.70;6.17;;;;;;;5.95;100.00;98758.25;5099532;28;20225;-81
2021/12/24 04:11:57;;;;;;;5.77;5.37;;;;;;;5.96;100.00;98749.59;5099862;28;20211;-81
2021/12/24 04:14:23;;;;;;;7.53;6.93;;;;;;;6.01;100.00;98748.63;5100105;28;20230;-81
2021/12/24 04:16:51;;;;;;;8.27;7.67;;;;;;;6.03;100.00;98739.91;5100016;28;20591;-81
2021/12/24 04:19:37;;;;;;;6.27;5.77;;;;;;;6.06;100.00;98741.56;5099662;28;20209;-81
2021/12/24 04:24:53;;;;;;;5.47;5.07;;;;;;;6.06;100.00;98745.00;5100233;28;20248;-80
2021/12/24 04:27:21;;;;;;;5.33;4.93;;;;;;;6.08;100.00;98740.63;5099665;28;20287;-81
2021/12/24 04:29:48;;;;;;;5.07;4.67;;;;;;;6.07;100.00;98748.47;5100085;28;20362;-80
2021/12/24 04:32:19;;;;;;;4.90;4.50;;;;;;;6.14;100.00;98757.75;5099293;28;20650;-81
2021/12/24 04:34:49;;;;;;;4.73;4.43;;;;;;;6.11;100.00;98750.06;5099549;28;20711;-81
2021/12/24 04:51:00;;;;;;;3.50;3.30;;;;;;;6.14;100.00;98740.47;5092461;28;20703;-81
2021/12/24 04:51:21;;;;;;;3.00;2.80;;;;;;;6.14;100.00;98743.06;5099041;28;20613;-81
2021/12/24 05:02:23;;;;;;;3.40;3.10;;;;;;;6.28;100.00;98740.09;5098928;28;20247;-81
2021/12/24 05:04:56;;;;;;;3.77;3.53;;;;;;;6.32;100.00;98744.28;5096000;28;20248;-81
2021/12/24 05:07:49;;;;;;;5.73;5.33;;;;;;;6.36;100.00;98740.72;5098248;28;20205;-80
2021/12/24 05:10:15;;;;;;;4.63;4.33;;;;;;;6.39;100.00;98741.50;5099122;28;20686;-81
2021/12/24 05:12:42;;;;;;;6.83;6.23;;;;;;;6.41;100.00;98744.91;5098764;28;20224;-81
2021/12/24 05:15:10;;;;;;;5.50;5.10;;;;;;;6.45;100.00;98749.94;5098787;28;20755;-80
2021/12/24 05:17:51;;;;;;;7.50;7.00;;;;;;;6.45;100.00;98746.50;5099451;28;20269;-81
2021/12/24 05:23:03;;;;;;;11.27;10.37;;;;;;;6.51;100.00;98746.31;5098551;28;20262;-81
2021/12/24 05:25:30;;;;;;;12.80;11.57;;;;;;;6.48;100.00;98754.19;5099449;28;20274;-81
2021/12/24 05:27:56;;;;;;;14.97;13.77;;;;;;;6.47;100.00;98745.56;5098532;28;20201;-81
2021/12/24 05:30:23;;;;;;;14.67;13.37;;;;;;;6.52;100.00;98755.78;5098862;28;20684;-81
2021/12/24 05:32:50;;;;;;;11.37;9.80;;;;;;;6.52;100.00;98748.00;5099027;28;20229;-80
2021/12/24 05:35:16;;;;;;;11.87;10.87;;;;;;;6.54;100.00;98761.78;5099028;28;20221;-81
2021/12/24 05:37:44;;;;;;;12.03;10.97;;;;;;;6.53;100.00;98754.91;5101451;28;20205;-80
2021/12/24 05:40:11;;;;;;;13.23;11.87;;;;;;;6.53;100.00;98754.91;5118525;28;20205;-80
2021/12/24 05:42:37;;;;;;;12.27;11.17;;;;;;;6.57;100.00;98751.31;5117577;28;20281;-81
2021/12/24 05:45:06;;;;;;;11.83;10.63;;;;;;;6.59;100.00;98757.31;5119202;28;20261;-80
2021/12/24 05:47:33;;;;;;;10.90;9.83;;;;;;;6.62;100.00;98766.72;5119117;28;20211;-80
2021/12/24 05:50:00;;;;;;;9.70;8.80;;;;;;;6.65;100.00;98761.47;5118479;28;20204;-81
2021/12/24 05:52:27;;;;;;;9.43;8.53;;;;;;;6.64;100.00;98764.94;5117358;28;20301;-80
2021/12/24 05:54:55;;;;;;;9.83;8.83;;;;;;;6.69;100.00;98758.72;5119042;28;20225;-80
2021/12/24 05:57:22;;;;;;;9.47;8.63;;;;;;;6.72;100.00;98757.81;5118746;28;20260;-80
2021/12/24 05:59:48;;;;;;;10.10;9.17;;;;;;;6.75;100.00;98766.31;5119121;28;20299;-80
2021/12/24 06:02:15;;;;;;;9.17;8.37;;;;;;;6.79;100.00;98761.06;5118199;28;20266;-80
2021/12/24 06:04:42;;;;;;;9.10;8.40;;;;;;;6.77;100.00;98753.31;5102715;28;20262;-80
2021/12/24 06:07:08;;;;;;;10.67;9.73;;;;;;;6.82;100.00;98758.34;5098665;28;20258;-80
2021/12/24 06:09:34;;;;;;;11.13;10.13;;;;;;;6.89;100.00;98760.72;5098456;28;20210;-80
2021/12/24 06:12:02;;;;;;;10.13;9.30;;;;;;;6.92;100.00;98764.97;5097982;28;20674;-80
2021/12/24 06:14:28;;;;;;;8.37;7.67;;;;;;;6.95;100.00;98762.25;5098262;28;20301;-80
2021/12/24 06:17:01;;;;;;;8.67;7.93;;;;;;;6.96;100.00;98763.97;5098858;28;20201;-80
2021/12/24 06:19:28;;;;;;;7.57;6.97;;;;;;;7.00;100.00;98772.50;5098522;28;20558;-80
2021/12/24 06:21:54;;;;;;;7.87;7.17;;;;;;;6.99;100.00;98776.00;5097994;28;20199;-80
2021/12/24 06:24:21;;;;;;;7.70;7.07;;;;;;;6.99;100.00;98771.66;5099275;28;20225;-80
2021/12/24 06:26:48;;;;;;;9.67;8.87;;;;;;;7.05;100.00;98765.41;5098588;28;20213;-79
2021/12/24 06:29:17;;;;;;;11.63;10.53;;;;;;;7.03;100.00;98781.03;5099191;28;20205;-80
2021/12/24 06:31:44;;;;;;;10.17;9.27;;;;;;;7.02;100.00;98775.91;5106750;28;20205;-79
2021/12/24 06:34:11;;;;;;;9.43;8.63;;;;;;;7.05;100.00;98765.41;5105435;28;20297;-80
2021/12/24 06:36:41;;;;;;;9.57;8.70;;;;;;;7.05;100.00;98781.81;5101240;28;20281;-80
2021/12/24 06:39:08;;;;;;;7.80;7.20;;;;;;;7.06;100.00;98770.56;5109792;28;20209;-79
2021/12/24 06:41:34;;;;;;;7.83;7.23;;;;;;;7.09;100.00;98773.03;5109294;28;20236;-78
2021/12/24 06:44:03;;;;;;;7.30;6.70;;;;;;;7.10;100.00;98777.34;5106952;28;20234;-80
2021/12/24 06:46:31;;;;;;;8.30;7.50;;;;;;;7.14;100.00;98776.34;5106980;28;20210;-80
2021/12/24 06:48:57;;;;;;;7.43;6.83;;;;;;;7.18;100.00;98782.31;5108024;28;20228;-80
2021/12/24 06:51:24;;;;;;;8.37;7.77;;;;;;;7.20;100.00;98784.84;5109229;28;20202;-80
2021/12/24 06:53:50;;;;;;;7.73;7.13;;;;;;;7.25;100.00;98790.72;5108631;28;20283;-79
2021/12/24 06:56:17;;;;;;;10.77;9.80;;;;;;;7.25;100.00;98794.16;5108821;28;20228;-79
2021/12/24 06:58:44;;;;;;;8.63;7.83;;;;;;;7.27;100.00;98794.13;5108523;28;20237;-79
2021/12/24 07:01:13;;;;;;;8.50;7.80;;;;;;;7.30;100.00;98794.88;5108476;28;20209;-79
2021/12/24 07:03:41;;;;;;;7.33;6.70;;;;;;;7.35;100.00;98803.38;5107974;28;20263;-78
2021/12/24 07:06:08;;;;;;;7.10;6.57;;;;;;;7.34;100.00;98809.47;5089380;28;20306;-78
2021/12/24 07:08:35;;;;;;;7.23;6.73;;;;;;;7.37;100.00;98818.88;5100361;28;20203;-78
2021/12/24 07:11:02;;;;;;;7.17;6.57;;;;;;;7.40;100.00;98824.00;5100063;28;20203;-78
2021/12/24 07:13:29;;;;;;;5.63;5.23;;;;;;;7.44;100.00;98828.19;5097084;28;20226;-79
2021/12/24 07:15:56;;;;;;;7.27;6.70;;;;;;;7.43;100.00;98839.44;5094904;28;20233;-79
2021/12/24 07:18:22;;;;;;;5.73;5.33;;;;;;;7.46;100.00;98830.72;5094766;28;20210;-79
2021/12/24 07:20:50;;;;;;;6.20;5.70;;;;;;;7.47;100.00;98854.06;5095169;28;20206;-78
2021/12/24 07:23:16;;;;;;;5.57;5.17;;;;;;;7.50;100.00;98856.53;5094031;28;20220;-78
2021/12/24 07:25:43;;;;;;;5.37;4.97;;;;;;;7.51;100.00;98870.38;5094609;28;20232;-78
2021/12/24 07:28:09;;;;;;;5.30;4.90;;;;;;;7.53;100.00;98866.84;5094706;28;20676;-78
2021/12/24 07:30:35;;;;;;;4.77;4.37;;;;;;;7.55;100.00;98870.25;5094384;28;20205;-78
2021/12/24 07:33:02;;;;;;;5.13;4.73;;;;;;;7.53;100.00;98873.75;5093552;28;20233;-78
2021/12/24 07:35:28;;;;;;;5.40;4.90;;;;;;;7.51;100.00;98872.97;5094784;28;20302;-78
2021/12/24 07:37:56;;;;;;;4.70;4.30;;;;;;;7.57;100.00;98885.75;5093904;28;20202;-78
2021/12/24 07:40:25;;;;;;;5.93;5.50;;;;;;;7.59;100.00;98875.31;5094198;28;20671;-78
2021/12/24 07:42:52;;;;;;;5.70;5.30;;;;;;;7.59;100.00;98890.91;5093997;28;20239;-78
2021/12/24 07:45:19;;;;;;;5.77;5.27;;;;;;;7.59;100.00;98890.91;5094350;28;20661;-78
2021/12/24 07:47:55;;;;;;;6.00;5.17;;;;;;;7.64;100.00;98889.00;5094950;28;20205;-78
2021/12/24 07:53:04;;;;;;;8.20;7.37;;;;;;;7.67;100.00;98907.06;5094215;28;20260;-78
2021/12/24 07:55:30;;;;;;;7.70;7.10;;;;;;;7.67;100.00;98915.75;5094303;28;20226;-79
2021/12/24 07:57:56;;;;;;;8.90;8.00;;;;;;;7.69;100.00;98918.25;5094009;28;20214;-78
2021/12/24 08:00:26;;;;;;;9.00;8.17;;;;;;;7.74;100.00;98924.19;5094835;28;20259;-78
2021/12/24 08:02:52;;;;;;;8.73;7.93;;;;;;;7.76;100.00;98938.81;5094482;28;20242;-78
2021/12/24 08:05:22;;;;;;;10.60;9.57;;;;;;;7.77;100.00;98950.06;5087576;28;20219;-78
2021/12/24 08:07:49;;;;;;;10.87;9.97;;;;;;;7.79;100.00;98948.28;5094378;28;20207;-78
2021/12/24 08:10:17;;;;;;;10.77;9.90;;;;;;;7.80;100.00;98943.91;5094582;28;20201;-78
2021/12/24 08:12:44;;;;;;;11.47;10.57;;;;;;;7.79;100.00;98965.56;5094262;28;20238;-78
2021/12/24 08:15:10;;;;;;;11.57;10.57;;;;;;;7.78;100.00;98982.91;5094466;28;20210;-78
2021/12/24 08:17:37;;;;;;;11.60;10.40;;;;;;;7.83;100.00;98975.84;5094040;28;20210;-78
2021/12/24 08:20:05;;;;;;;10.17;9.27;;;;;;;7.88;100.00;98986.06;5093915;28;20771;-78
2021/12/24 08:22:31;;;;;;;11.57;10.37;;;;;;;7.91;100.00;98988.59;5093324;28;20227;-78
2021/12/24 08:24:58;;;;;;;10.77;9.67;;;;;;;7.89;100.00;99008.59;5094363;28;20207;-77
2021/12/24 08:27:25;;;;;;;11.17;10.17;;;;;;;7.92;100.00;99011.91;5093601;28;20673;-77
2021/12/24 08:29:52;;;;;;;10.83;9.77;;;;;;;7.95;100.00;99000.59;5093465;28;20255;-78
2021/12/24 08:32:18;;;;;;;11.07;9.90;;;;;;;7.93;100.00;98998.03;5095149;28;20201;-78
2021/12/24 08:34:45;;;;;;;10.67;9.67;;;;;;;7.89;100.00;98999.03;5102546;28;20205;-78
2021/12/24 08:37:12;;;;;;;11.57;10.37;;;;;;;7.85;100.00;98997.44;5101772;28;20235;-76
2021/12/24 08:39:43;;;;;;;11.67;10.67;;;;;;;7.91;100.00;98994.63;5098079;28;20258;-77
2021/12/24 08:42:10;;;;;;;11.63;10.53;;;;;;;7.92;100.00;98996.31;5100658;28;20246;-77
2021/12/24 08:44:38;;;;;;;11.87;10.70;;;;;;;7.90;100.00;98992.91;5106374;28;20688;-78
2021/12/24 08:47:06;;;;;;;12.87;11.67;;;;;;;7.90;100.00;98997.28;5106878;28;20208;-79
2021/12/24 08:49:33;;;;;;;12.70;11.20;;;;;;;7.93;100.00;98995.44;5107386;28;20205;-79
2021/12/24 08:52:00;;;;;;;13.30;12.10;;;;;;;7.92;100.00;99000.66;5108162;28;20628;-78
2021/12/24 08:54:27;;;;;;;12.93;11.83;;;;;;;7.95;100.00;99009.22;5108275;28;20342;-78
2021/12/24 08:56:55;;;;;;;12.97;11.77;;;;;;;7.95;100.00;99008.38;5106866;28;20225;-78
2021/12/24 08:59:23;;;;;;;12.17;11.07;;;;;;;7.96;100.00;99004.88;5108870;28;20252;-78
2021/12/24 09:01:50;;;;;;;12.70;11.40;;;;;;;7.93;100.00;98998.03;5108089;28;20198;-79
2021/12/24 09:04:17;;;;;;;13.37;12.07;;;;;;;7.92;100.00;99004.13;5106130;28;20277;-76
2021/12/24 09:06:44;;;;;;;13.63;12.33;;;;;;;7.91;100.00;98989.44;5099863;28;20201;-77
2021/12/24 09:09:11;;;;;;;15.17;13.77;;;;;;;7.90;100.00;98982.53;5104085;28;20249;-78
2021/12/24 09:11:40;;;;;;;15.13;13.63;;;;;;;7.90;100.00;98973.88;5100862;28;20268;-78
2021/12/24 09:14:06;;;;;;;13.23;12.10;;;;;;;7.92;100.00;98966.91;5094389;28;20222;-78
2021/12/24 09:16:34;;;;;;;14.40;12.97;;;;;;;7.89;100.00;98962.66;5093373;28;20227;-78
2021/12/24 09:19:06;;;;;;;15.80;14.20;;;;;;;7.91;100.00;98958.25;5094717;28;20214;-77
2021/12/24 09:21:33;;;;;;;19.80;16.83;;;;;;;7.93;100.00;98943.47;5094555;28;20206;-78
2021/12/24 09:24:00;;;;;;;22.20;17.40;;;;;;;7.95;100.00;98938.22;5095894;28;20229;-78
2021/12/24 09:26:29;;;;;;;19.53;17.63;;;;;;;7.93;100.00;98933.09;5095503;28;20274;-77
2021/12/24 09:28:55;;;;;;;17.23;15.50;;;;;;;7.92;100.00;98930.53;5100343;28;20206;-78
2021/12/24 09:31:26;;;;;;;18.97;17.03;;;;;;;7.90;100.00;98934.91;5104007;28;20206;-78
2021/12/24 09:33:53;;;;;;;21.63;17.13;;;;;;;7.84;100.00;98924.72;4397659;28;10000847;-78
2021/12/24 09:36:25;;;;;;;21.70;18.30;;;;;;;7.87;100.00;98930.69;5084910;28;20215;-78
2021/12/24 09:38:52;;;;;;;17.80;15.90;;;;;;;7.91;100.00;98914.09;5093117;28;20214;-79
2021/12/24 09:41:18;;;;;;;14.97;13.17;;;;;;;7.95;100.00;98930.44;5093365;28;20635;-78
2021/12/24 09:43:44;;;;;;;15.10;13.57;;;;;;;7.97;100.00;98933.84;5093323;28;20222;-78
2021/12/24 09:46:11;;;;;;;12.77;11.37;;;;;;;8.01;100.00;98951.03;5094445;28;20224;-78
2021/12/24 09:48:38;;;;;;;12.40;11.30;;;;;;;8.05;100.00;98949.19;5094368;28;20228;-79
2021/12/24 09:51:04;;;;;;;11.73;10.43;;;;;;;8.06;100.00;98972.50;5105320;28;20632;-78
2021/12/24 09:53:32;;;;;;;11.70;10.50;;;;;;;8.08;100.00;98975.88;5096153;28;20650;-79
2021/12/24 09:55:59;;;;;;;11.00;9.80;;;;;;;8.10;100.00;98994.88;5092976;28;20231;-78
2021/12/24 09:58:25;;;;;;;12.33;11.13;;;;;;;8.09;100.00;98987.16;5093255;28;20646;-78
2021/12/24 10:00:52;;;;;;;12.20;10.97;;;;;;;8.06;100.00;98982.03;5094384;28;20210;-78
2021/12/24 10:03:29;;;;;;;12.80;10.63;;;;;;;8.08;100.00;98970.69;5094359;28;20246;-77
2021/12/24 10:05:56;;;;;;;11.03;10.03;;;;;;;8.09;100.00;98979.38;5093023;28;20260;-78
2021/12/24 10:08:24;;;;;;;13.07;9.90;;;;;;;8.11;100.00;98974.97;5094086;28;20211;-78
2021/12/24 10:10:54;;;;;;;10.10;9.13;;;;;;;8.16;100.00;98978.25;5094348;28;20209;-78
2021/12/24 10:13:35;;;;;;;9.30;8.50;;;;;;;8.15;100.00;99008.59;5093386;28;20289;-78
2021/12/24 10:16:04;;;;;;;9.07;8.27;;;;;;;8.11;100.00;99017.38;5093864;28;20229;-79
2021/12/24 10:18:35;;;;;;;10.10;9.10;;;;;;;8.09;100.00;99008.78;5094187;28;20704;-78
2021/12/24 10:21:07;;;;;;;9.83;8.93;;;;;;;8.09;100.00;99000.16;5094284;28;20213;-79
2021/12/24 10:23:49;;;;;;;9.87;8.97;;;;;;;8.07;100.00;98984.59;5094403;28;20225;-78
2021/12/24 10:26:21;;;;;;;8.67;7.83;;;;;;;8.07;100.00;98996.75;5094684;28;20315;-78
2021/12/24 10:29:02;;;;;;;8.23;7.53;;;;;;;8.12;100.00;99023.44;5095298;28;20203;-79
2021/12/24 10:31:30;;;;;;;10.00;8.90;;;;;;;8.08;100.00;99038.25;5094523;28;20687;-78
2021/12/24 10:34:19;;;;;;;10.00;9.00;;;;;;;8.08;100.00;99024.44;5077591;28;20238;-78
2021/12/24 10:37:04;;;;;;;9.20;8.30;;;;;;;8.10;100.00;99023.47;5070078;28;20258;-78
2021/12/24 10:39:34;;;;;;;8.57;7.70;;;;;;;8.11;100.00;99030.38;5069492;28;20721;-77
2021/12/24 10:42:06;;;;;;;12.30;7.70;;;;;;;8.14;100.00;99058.00;5066280;28;20207;-77
2021/12/24 10:44:34;;;;;;;8.37;7.53;;;;;;;8.13;100.00;99048.53;5066388;28;20233;-77
2021/12/24 10:47:05;;;;;;;12.47;9.67;;;;;;;8.08;100.00;99020.06;5067466;28;20271;-77
2021/12/24 10:49:51;;;;;;;10.30;9.30;;;;;;;8.11;100.00;99014.78;5066444;28;20248;-77
2021/12/24 10:52:31;;;;;;;9.87;8.97;;;;;;;8.08;100.00;99012.28;5069620;28;20207;-77
2021/12/24 10:55:00;;;;;;;10.80;9.80;;;;;;;8.00;100.00;98975.28;5071231;28;20330;-77
2021/12/24 10:57:31;;;;;;;10.27;8.73;;;;;;;7.98;100.00;98953.72;5079609;28;20225;-77
2021/12/24 11:00:00;;;;;;;9.03;8.10;;;;;;;8.01;100.00;98970.94;5070276;28;20222;-77
2021/12/24 11:02:31;;;;;;;9.70;8.10;;;;;;;8.04;100.00;98976.06;5068699;28;20269;-77
2021/12/24 11:04:58;;;;;;;8.30;7.60;;;;;;;8.03;100.00;98984.75;5077428;28;20203;-76
2021/12/24 11:07:33;;;;;;;8.70;7.10;;;;;;;8.06;100.00;99001.06;5070857;28;20256;-77
2021/12/24 11:10:11;;;;;;;8.27;6.87;;;;;;;8.09;100.00;98994.97;5071521;28;20255;-77
2021/12/24 11:12:41;;;;;;;8.53;6.87;;;;;;;8.09;100.00;99026.97;5068028;28;20265;-76
2021/12/24 11:15:23;;;;;;;8.90;7.33;;;;;;;8.05;100.00;99034.94;5071872;28;20211;-77
2021/12/24 11:17:50;;;;;;;9.37;7.23;;;;;;;8.03;100.00;99016.78;5076220;28;21207;-77
2021/12/24 11:20:17;;;;;;;8.10;7.30;;;;;;;8.03;100.00;99016.78;5073219;28;20242;-76
2021/12/24 11:22:56;;;;;;;7.57;6.87;;;;;;;8.05;100.00;99019.34;5067040;28;20284;-77
2021/12/24 11:25:26;;;;;;;7.47;6.30;;;;;;;8.08;100.00;99035.66;5068642;28;20209;-77
2021/12/24 11:27:54;;;;;;;8.87;7.03;;;;;;;8.14;100.00;99058.84;5069028;28;20341;-76
2021/12/24 11:30:23;;;;;;;7.77;6.87;;;;;;;8.24;99.82;99089.78;5072924;28;20213;-77
2021/12/24 11:32:50;;;;;;;6.83;5.93;;;;;;;8.23;98.80;99114.94;5072139;28;20302;-76
2021/12/24 11:35:18;;;;;;;11.83;5.77;;;;;;;8.26;99.14;99129.56;5071647;28;20698;-78
2021/12/24 11:37:47;;;;;;;7.90;6.53;;;;;;;8.24;98.32;99126.16;5072653;28;20304;-77
2021/12/24 11:40:16;;;;;;;6.73;5.40;;;;;;;8.19;98.56;99134.13;5071797;28;20925;-79
2021/12/24 11:42:44;;;;;;;8.00;6.20;;;;;;;8.19;98.63;99138.47;5080833;28;20249;-78
2021/12/24 11:45:11;;;;;;;8.60;6.10;;;;;;;8.14;98.58;99133.38;5073550;28;20206;-77
2021/12/24 11:47:39;;;;;;;7.20;6.10;;;;;;;8.15;98.66;99115.16;5075907;28;20210;-77
2021/12/24 11:50:06;;;;;;;7.73;6.20;;;;;;;8.03;99.13;99105.13;5072820;28;20203;-77
2021/12/24 11:52:33;;;;;;;12.73;7.47;;;;;;;8.00;99.96;99078.38;5073114;28;20279;-77
2021/12/24 11:55:01;;;;;;;9.20;7.03;;;;;;;8.00;100.00;99066.25;5073777;28;20214;-78
2021/12/24 11:57:27;;;;;;;8.83;7.43;;;;;;;8.02;100.00;99064.44;5074287;28;20227;-78
2021/12/24 11:59:54;;;;;;;7.53;6.67;;;;;;;8.00;99.91;99062.78;5074130;28;21267;-77
2021/12/24 12:02:45;;;;;;;7.03;6.43;;;;;;;8.01;99.86;99062.75;5078038;28;20678;-77
2021/12/24 12:05:14;;;;;;;7.30;6.70;;;;;;;8.03;100.00;99055.75;5069935;28;20210;-78
2021/12/24 12:07:41;;;;;;;10.63;7.00;;;;;;;7.96;100.00;99057.69;5069426;28;20750;-78
2021/12/24 12:10:08;;;;;;;8.73;6.63;;;;;;;7.95;99.85;99058.59;5074114;28;20212;-77
2021/12/24 12:12:35;;;;;;;9.53;7.70;;;;;;;7.90;100.00;99052.66;5074432;28;20226;-77
2021/12/24 12:15:23;;;;;;;8.87;7.97;;;;;;;7.98;100.00;99044.66;5068786;28;20207;-77
2021/12/24 12:17:55;;;;;;;8.20;7.40;;;;;;;7.95;100.00;99049.97;5073070;28;20284;-78
2021/12/24 12:20:40;;;;;;;6.20;5.60;;;;;;;7.98;100.00;99049.84;5073020;28;20215;-77
2021/12/24 12:23:13;;;;;;;6.60;6.00;;;;;;;7.96;99.52;99080.22;5077341;28;20229;-77
2021/12/24 12:25:40;;;;;;;7.10;6.33;;;;;;;8.01;99.35;99074.88;5075893;28;20295;-77
2021/12/24 12:28:15;;;;;;;7.77;6.83;;;;;;;8.00;99.84;99075.78;5074201;28;20204;-77
2021/12/24 12:30:48;;;;;;;14.27;12.77;;;;;;;7.96;100.00;99068.06;5075861;28;20574;-77
2021/12/24 12:33:19;;;;;;;9.20;8.30;;;;;;;7.95;100.00;99042.16;5074312;28;20240;-78
2021/12/24 12:35:48;;;;;;;7.57;6.77;;;;;;;7.93;99.84;99038.75;5079386;28;20213;-78
2021/12/24 12:38:34;;;;;;;8.03;7.27;;;;;;;7.88;100.00;99032.84;5081941;28;20714;-78
2021/12/24 12:41:22;;;;;;;6.20;5.60;;;;;;;7.91;100.00;99045.75;5081155;28;20209;-77
2021/12/24 12:43:49;;;;;;;1.03;0.97;;;;;;;7.51;97.77;99142.97;5069576;28;20231;-77
2021/12/24 12:46:21;;;;;;;0.70;0.70;;;;;;;7.13;97.76;99168.22;5080882;28;20207;-78
2021/12/24 12:48:53;;;;;;;0.70;0.70;;;;;;;7.00;98.59;99149.53;5084334;28;20210;-78
2021/12/24 12:51:42;;;;;;;0.70;0.60;;;;;;;6.95;98.54;99157.41;5081574;28;20203;-77